createdAt,value
2023-09-27T00:01:50.582Z,4.50
2023-09-27T00:04:17.461Z,4.73
2023-09-27T00:06:45.090Z,4.70
2023-09-27T00:09:12.512Z,5.50
2023-09-27T00:11:39.346Z,5.40
2023-09-27T00:14:06.217Z,5.00
2023-09-27T00:16:33.532Z,4.87
2023-09-27T00:19:00.622Z,5.53
2023-09-27T00:21:27.472Z,5.00
2023-09-27T00:23:54.292Z,5.90
2023-09-27T00:26:21.274Z,4.97
2023-09-27T00:28:48.139Z,4.93
2023-09-27T00:31:16.190Z,4.57
2023-09-27T00:33:43.089Z,4.77
2023-09-27T00:36:10.669Z,4.77
2023-09-27T00:38:40.343Z,4.43
2023-09-27T00:41:07.341Z,4.47
2023-09-27T00:43:35.424Z,4.30
2023-09-27T00:46:06.387Z,4.57
2023-09-27T00:48:35.936Z,4.80
2023-09-27T00:51:04.836Z,4.20
2023-09-27T00:53:37.543Z,4.13
2023-09-27T00:56:06.596Z,4.23
2023-09-27T00:58:35.678Z,4.20
2023-09-27T01:01:02.580Z,4.93
2023-09-27T01:03:29.494Z,4.50
2023-09-27T01:05:56.537Z,4.23
2023-09-27T01:08:23.480Z,4.30
2023-09-27T01:10:50.726Z,4.07
2023-09-27T01:13:17.579Z,4.03
2023-09-27T01:15:44.418Z,3.73
2023-09-27T01:18:11.398Z,3.77
2023-09-27T01:20:38.502Z,3.90
2023-09-27T01:23:06.820Z,3.90
2023-09-27T01:25:35.586Z,4.50
2023-09-27T01:28:11.155Z,3.90
2023-09-27T01:30:39.026Z,4.10
2023-09-27T01:33:08.230Z,4.40
2023-09-27T01:35:36.890Z,4.30
2023-09-27T01:38:04.963Z,4.30
2023-09-27T01:40:33.770Z,4.50
2023-09-27T01:43:02.218Z,4.67
2023-09-27T01:45:30.380Z,4.13
2023-09-27T01:47:58.373Z,4.37
2023-09-27T01:50:26.176Z,4.53
2023-09-27T01:52:53.500Z,4.73
2023-09-27T01:55:20.431Z,4.73
2023-09-27T01:57:47.540Z,4.63
2023-09-27T02:00:16.285Z,4.80
2023-09-27T02:02:49.805Z,4.80
2023-09-27T02:05:16.936Z,4.30
2023-09-27T02:07:43.900Z,4.60
2023-09-27T02:10:12.328Z,4.90
2023-09-27T02:12:40.822Z,4.40
2023-09-27T02:15:10.152Z,4.90
2023-09-27T02:17:37.847Z,4.77
2023-09-27T02:20:09.179Z,4.70
2023-09-27T02:22:36.272Z,4.57
2023-09-27T02:25:03.365Z,4.90
2023-09-27T02:27:30.201Z,4.30
2023-09-27T02:29:57.745Z,4.93
2023-09-27T02:32:24.761Z,4.47
2023-09-27T02:34:52.721Z,4.47
2023-09-27T02:37:21.705Z,4.20
2023-09-27T02:39:49.071Z,4.67
2023-09-27T02:42:16.047Z,4.20
2023-09-27T02:44:42.868Z,4.53
2023-09-27T02:47:09.740Z,4.47
2023-09-27T02:49:36.779Z,4.83
2023-09-27T02:52:03.960Z,4.43
2023-09-27T02:54:31.079Z,4.03
2023-09-27T02:56:57.849Z,5.07
2023-09-27T02:59:24.707Z,4.83
2023-09-27T03:01:51.611Z,4.63
2023-09-27T03:04:19.059Z,5.00
2023-09-27T03:06:50.326Z,4.70
2023-09-27T03:09:17.976Z,4.43
2023-09-27T03:11:45.207Z,4.70
2023-09-27T03:14:12.639Z,4.33
2023-09-27T03:16:40.718Z,4.10
2023-09-27T03:19:07.641Z,4.37
2023-09-27T03:21:34.446Z,5.20
2023-09-27T03:24:01.364Z,4.57
2023-09-27T03:26:28.498Z,4.50
2023-09-27T03:28:55.985Z,4.20
2023-09-27T03:31:23.173Z,4.30
2023-09-27T03:33:49.993Z,4.23
2023-09-27T03:36:16.896Z,4.70
2023-09-27T03:38:43.709Z,4.97
2023-09-27T03:41:12.846Z,4.97
2023-09-27T03:43:40.888Z,4.57
2023-09-27T03:46:07.791Z,6.17
2023-09-27T03:48:35.156Z,5.07
2023-09-27T03:51:02.228Z,4.60
2023-09-27T03:53:29.291Z,5.60
2023-09-27T03:55:56.257Z,5.50
2023-09-27T03:58:23.263Z,5.03
2023-09-27T04:00:50.241Z,5.77
2023-09-27T04:03:21.395Z,5.33
2023-09-27T04:05:48.285Z,5.20
2023-09-27T04:08:15.187Z,5.07
2023-09-27T04:10:42.199Z,5.90
2023-09-27T04:13:08.996Z,5.40
2023-09-27T04:15:37.041Z,5.60
2023-09-27T04:18:04.926Z,5.10
2023-09-27T04:20:33.706Z,4.50
2023-09-27T04:23:04.731Z,4.73
2023-09-27T04:25:31.822Z,5.33
2023-09-27T04:27:58.691Z,5.70
2023-09-27T04:30:25.932Z,4.90
2023-09-27T04:32:53.196Z,5.13
2023-09-27T04:35:21.617Z,5.57
2023-09-27T04:37:49.486Z,5.80
2023-09-27T04:40:16.584Z,6.10
2023-09-27T04:42:45.366Z,5.70
2023-09-27T04:45:14.248Z,6.10
2023-09-27T04:47:42.415Z,5.60
2023-09-27T04:50:13.298Z,5.27
2023-09-27T04:52:40.746Z,5.87
2023-09-27T04:55:10.214Z,6.10
2023-09-27T04:57:37.378Z,6.20
2023-09-27T05:00:05.353Z,5.77
2023-09-27T05:02:32.450Z,5.87
2023-09-27T05:04:59.488Z,5.80
2023-09-27T05:07:26.404Z,5.50
2023-09-27T05:09:53.508Z,6.37
2023-09-27T05:12:20.415Z,7.07
2023-09-27T05:14:47.227Z,6.67
2023-09-27T05:17:14.057Z,6.40
2023-09-27T05:19:40.951Z,6.23
2023-09-27T05:22:07.882Z,6.93
2023-09-27T05:24:39.899Z,6.70
2023-09-27T05:27:08.612Z,6.83
2023-09-27T05:29:37.048Z,6.70
2023-09-27T05:32:04.435Z,5.93
2023-09-27T05:34:35.199Z,6.10
2023-09-27T05:37:03.209Z,6.50
2023-09-27T05:39:30.070Z,7.00
2023-09-27T05:41:56.911Z,6.57
2023-09-27T05:44:23.955Z,6.57
2023-09-27T05:46:50.863Z,6.50
2023-09-27T05:49:18.167Z,6.00
2023-09-27T05:51:45.229Z,6.37
2023-09-27T05:54:12.187Z,6.87
2023-09-27T05:56:39.431Z,6.93
2023-09-27T05:59:10.316Z,6.03
2023-09-27T06:01:38.560Z,7.00
2023-09-27T06:04:05.765Z,6.17
2023-09-27T06:06:32.590Z,6.67
2023-09-27T06:08:59.934Z,6.20
2023-09-27T06:11:26.989Z,7.00
2023-09-27T06:13:53.890Z,7.40
2023-09-27T06:16:21.420Z,8.67
2023-09-27T06:18:48.454Z,8.80
2023-09-27T06:21:15.741Z,8.60
2023-09-27T06:23:43.246Z,8.80
2023-09-27T06:26:11.000Z,7.50
2023-09-27T06:28:39.521Z,7.47
2023-09-27T06:31:09.303Z,6.33
2023-09-27T06:33:40.899Z,6.90
2023-09-27T06:36:11.837Z,6.80
2023-09-27T06:38:39.050Z,6.77
2023-09-27T06:41:06.019Z,5.90
2023-09-27T06:43:33.089Z,7.50
2023-09-27T06:46:02.741Z,7.73
2023-09-27T06:48:30.320Z,7.23
2023-09-27T06:50:57.739Z,6.90
2023-09-27T06:53:27.488Z,6.90
2023-09-27T06:55:56.882Z,7.10
2023-09-27T06:58:26.441Z,7.20
2023-09-27T07:00:54.022Z,6.40
2023-09-27T07:03:26.399Z,5.70
2023-09-27T07:05:53.950Z,6.10
2023-09-27T07:08:21.689Z,6.60
2023-09-27T07:10:48.949Z,6.77
2023-09-27T07:13:16.270Z,7.33
2023-09-27T07:15:47.470Z,6.60
2023-09-27T07:18:14.874Z,6.67
2023-09-27T07:20:43.326Z,7.07
2023-09-27T07:23:16.165Z,6.50
2023-09-27T07:25:46.617Z,6.93
2023-09-27T07:28:14.045Z,7.70
2023-09-27T07:30:41.099Z,9.13
2023-09-27T07:33:12.392Z,9.40
2023-09-27T07:35:44.168Z,7.53
2023-09-27T07:38:12.460Z,7.73
2023-09-27T07:40:39.911Z,7.17
2023-09-27T07:43:06.820Z,8.27
2023-09-27T07:45:36.671Z,8.47
2023-09-27T07:48:04.946Z,8.73
2023-09-27T07:50:34.876Z,7.67
2023-09-27T07:53:07.266Z,8.47
2023-09-27T07:55:37.457Z,7.73
2023-09-27T07:58:05.148Z,8.10
2023-09-27T08:00:34.299Z,7.43
2023-09-27T08:03:04.864Z,7.27
2023-09-27T08:05:32.738Z,6.97
2023-09-27T08:07:59.676Z,7.10
2023-09-27T08:10:26.963Z,6.77
2023-09-27T08:12:53.869Z,7.20
2023-09-27T08:15:21.456Z,6.97
2023-09-27T08:17:49.020Z,7.27
2023-09-27T08:20:16.558Z,8.07
2023-09-27T08:22:43.749Z,7.33
2023-09-27T08:25:18.266Z,7.30
2023-09-27T08:27:46.375Z,7.60
2023-09-27T08:30:13.733Z,9.37
2023-09-27T08:32:42.709Z,8.80
2023-09-27T08:35:10.968Z,8.13
2023-09-27T08:37:38.306Z,7.70
2023-09-27T08:40:14.207Z,7.97
2023-09-27T08:42:42.964Z,8.23
2023-09-27T08:45:15.082Z,7.77
2023-09-27T08:47:44.390Z,8.00
2023-09-27T08:50:16.454Z,9.60
2023-09-27T08:52:50.356Z,11.40
2023-09-27T08:55:18.736Z,9.67
2023-09-27T08:57:51.283Z,8.57
2023-09-27T09:00:22.137Z,7.87
2023-09-27T09:02:51.756Z,7.77
2023-09-27T09:05:19.581Z,6.77
2023-09-27T09:07:46.865Z,6.73
2023-09-27T09:10:15.307Z,6.10
2023-09-27T09:12:43.891Z,6.57
2023-09-27T09:15:16.604Z,5.57
2023-09-27T09:17:49.155Z,5.80
2023-09-27T09:20:22.312Z,6.77
2023-09-27T09:22:51.357Z,5.57
2023-09-27T09:25:18.290Z,6.50
2023-09-27T09:27:45.760Z,6.27
2023-09-27T09:30:13.104Z,5.27
2023-09-27T09:32:53.192Z,5.47
2023-09-27T09:35:35.535Z,4.93
2023-09-27T09:38:04.659Z,4.57
2023-09-27T09:40:33.046Z,4.33
2023-09-27T09:43:01.390Z,4.17
2023-09-27T09:45:30.169Z,5.13
2023-09-27T09:47:57.862Z,4.00
2023-09-27T09:50:25.350Z,4.63
2023-09-27T09:52:55.068Z,4.67
2023-09-27T09:55:52.120Z,4.93
2023-09-27T09:58:30.676Z,4.60
2023-09-27T10:01:02.233Z,4.87
2023-09-27T10:03:34.193Z,4.40
2023-09-27T10:06:03.260Z,4.03
2023-09-27T10:08:36.386Z,4.23
2023-09-27T10:11:07.805Z,3.93
2023-09-27T10:13:40.761Z,3.70
2023-09-27T10:16:11.344Z,3.80
2023-09-27T10:18:42.332Z,3.70
2023-09-27T10:21:12.235Z,3.70
2023-09-27T10:23:45.636Z,4.13
2023-09-27T10:26:28.477Z,3.60
2023-09-27T10:29:11.900Z,3.57
2023-09-27T10:31:58.850Z,3.77
2023-09-27T10:34:29.134Z,3.63
2023-09-27T10:37:17.280Z,3.80
2023-09-27T10:40:21.163Z,3.70
2023-09-27T10:42:48.918Z,3.97
2023-09-27T10:45:18.307Z,4.23
2023-09-27T10:47:48.075Z,3.37
2023-09-27T10:50:17.993Z,4.10
2023-09-27T10:52:45.093Z,3.50
2023-09-27T10:55:15.667Z,3.23
2023-09-27T10:57:43.335Z,3.30
2023-09-27T11:00:13.876Z,3.10
2023-09-27T11:02:43.337Z,3.00
2023-09-27T11:05:10.965Z,2.60
2023-09-27T11:07:47.383Z,3.10
2023-09-27T11:10:20.009Z,3.10
2023-09-27T11:12:46.990Z,2.73
2023-09-27T11:15:23.674Z,2.40
2023-09-27T11:17:56.938Z,2.30
2023-09-27T11:20:25.811Z,1.80
2023-09-27T11:22:59.938Z,1.77
2023-09-27T11:25:31.240Z,1.83
2023-09-27T11:27:58.695Z,1.60
2023-09-27T11:30:33.408Z,1.90
2023-09-27T11:33:07.380Z,1.80
2023-09-27T11:35:34.800Z,1.70
2023-09-27T11:38:06.887Z,1.93
2023-09-27T11:40:34.841Z,1.80
2023-09-27T11:43:05.132Z,2.10
2023-09-27T11:45:49.100Z,2.00
2023-09-27T11:48:17.923Z,1.90
2023-09-27T11:50:45.104Z,1.90
2023-09-27T11:53:12.589Z,1.90
2023-09-27T11:55:39.613Z,1.60
2023-09-27T11:58:06.712Z,1.90
2023-09-27T12:00:33.684Z,1.80
2023-09-27T12:03:00.798Z,2.10
2023-09-27T12:05:28.864Z,1.80
2023-09-27T12:07:56.401Z,1.50
2023-09-27T12:10:23.790Z,1.70
2023-09-27T12:12:50.715Z,1.80
2023-09-27T12:15:17.816Z,1.87
2023-09-27T12:17:44.996Z,1.60
2023-09-27T12:20:26.619Z,1.60
2023-09-27T12:22:58.871Z,1.50
2023-09-27T12:25:27.017Z,1.53
2023-09-27T12:27:53.840Z,1.73
2023-09-27T12:30:20.724Z,2.03
2023-09-27T12:32:47.684Z,1.80
2023-09-27T12:35:14.740Z,1.70
2023-09-27T12:37:41.780Z,1.43
2023-09-27T12:40:09.538Z,1.67
2023-09-27T12:42:36.932Z,1.67
2023-09-27T12:45:04.775Z,1.67
2023-09-27T12:47:33.327Z,1.73
2023-09-27T12:50:04.706Z,1.50
2023-09-27T12:52:32.629Z,1.40
2023-09-27T12:54:59.933Z,1.40
2023-09-27T12:57:27.085Z,1.43
2023-09-27T12:59:54.027Z,1.50
2023-09-27T13:02:21.795Z,1.30
2023-09-27T13:04:48.780Z,1.77
2023-09-27T13:07:18.139Z,1.60
2023-09-27T13:09:45.494Z,1.20
2023-09-27T13:12:12.596Z,1.70
2023-09-27T13:14:40.303Z,1.60
2023-09-27T13:17:07.358Z,1.70
2023-09-27T13:19:34.717Z,1.77
2023-09-27T13:22:01.610Z,1.60
2023-09-27T13:24:28.543Z,1.40
2023-09-27T13:26:55.487Z,1.40
2023-09-27T13:29:22.957Z,2.30
2023-09-27T13:31:51.390Z,2.50
2023-09-27T13:34:18.459Z,2.30
2023-09-27T13:36:46.160Z,2.23
2023-09-27T13:39:18.348Z,2.50
2023-09-27T13:41:47.387Z,1.80
2023-09-27T13:44:15.201Z,1.93
2023-09-27T13:46:43.154Z,1.60
2023-09-27T13:49:10.393Z,1.70
2023-09-27T13:51:38.064Z,1.73
2023-09-27T13:54:08.581Z,1.57
2023-09-27T13:56:36.705Z,1.70
2023-09-27T13:59:05.010Z,1.40
2023-09-27T14:01:32.088Z,1.47
2023-09-27T14:04:00.258Z,1.17
2023-09-27T14:06:27.462Z,1.57
2023-09-27T14:08:55.128Z,1.57
2023-09-27T14:11:22.376Z,1.93
2023-09-27T14:13:49.676Z,1.60
2023-09-27T14:16:20.115Z,1.77
2023-09-27T14:18:47.541Z,1.57
2023-09-27T14:21:14.864Z,1.33
2023-09-27T14:23:44.125Z,1.37
2023-09-27T14:26:12.620Z,1.23
2023-09-27T14:28:40.219Z,1.40
2023-09-27T14:31:07.179Z,1.13
2023-09-27T14:33:35.162Z,1.10
2023-09-27T14:36:06.323Z,1.30
2023-09-27T14:38:36.830Z,1.30
2023-09-27T14:41:10.794Z,1.30
2023-09-27T14:43:41.405Z,1.67
2023-09-27T14:46:12.611Z,1.43
2023-09-27T14:48:40.390Z,1.93
2023-09-27T14:51:12.694Z,1.50
2023-09-27T14:53:42.361Z,1.57
2023-09-27T14:56:10.951Z,2.00
2023-09-27T14:58:38.028Z,1.83
2023-09-27T15:01:05.806Z,1.60
2023-09-27T15:03:33.827Z,1.63
2023-09-27T15:06:05.393Z,2.10
2023-09-27T15:08:33.019Z,2.07
2023-09-27T15:11:00.476Z,1.60
2023-09-27T15:13:28.206Z,1.83
2023-09-27T15:15:55.583Z,1.60
2023-09-27T15:18:25.136Z,1.93
2023-09-27T15:20:53.132Z,2.13
2023-09-27T15:23:20.150Z,2.00
2023-09-27T15:25:49.571Z,1.90
2023-09-27T15:28:16.595Z,2.10
2023-09-27T15:30:43.531Z,1.60
2023-09-27T15:33:10.757Z,1.70
2023-09-27T15:35:39.102Z,1.70
2023-09-27T15:38:06.546Z,1.70
2023-09-27T15:40:34.591Z,1.50
2023-09-27T15:43:02.080Z,1.53
2023-09-27T15:45:31.008Z,1.80
2023-09-27T15:47:58.260Z,1.57
2023-09-27T15:50:25.413Z,1.60
2023-09-27T15:52:52.410Z,1.63
2023-09-27T15:55:19.907Z,1.97
2023-09-27T15:57:47.057Z,1.70
2023-09-27T16:00:14.642Z,1.90
2023-09-27T16:02:41.748Z,1.60
2023-09-27T16:05:11.943Z,1.70
2023-09-27T16:07:40.198Z,1.80
2023-09-27T16:10:10.816Z,1.70
2023-09-27T16:12:38.242Z,1.60
2023-09-27T16:15:08.038Z,1.63
2023-09-27T16:17:36.794Z,1.83
2023-09-27T16:20:05.808Z,1.70
2023-09-27T16:22:32.641Z,1.67
2023-09-27T16:25:00.552Z,1.90
2023-09-27T16:27:27.536Z,1.80
2023-09-27T16:29:55.512Z,2.00
2023-09-27T16:32:23.119Z,1.90
2023-09-27T16:34:50.065Z,1.80
2023-09-27T16:37:16.919Z,2.00
2023-09-27T16:39:43.874Z,2.40
2023-09-27T16:42:10.726Z,1.77
2023-09-27T16:44:37.610Z,1.83
2023-09-27T16:47:04.561Z,2.10
2023-09-27T16:49:31.698Z,2.23
2023-09-27T16:51:58.535Z,2.20
2023-09-27T16:54:25.679Z,2.23
2023-09-27T16:56:52.699Z,2.13
2023-09-27T16:59:19.681Z,2.67
2023-09-27T17:01:46.908Z,2.97
2023-09-27T17:04:14.149Z,2.73
2023-09-27T17:06:41.114Z,2.70
2023-09-27T17:09:08.367Z,2.83
2023-09-27T17:11:35.390Z,3.40
2023-09-27T17:14:02.417Z,3.00
2023-09-27T17:16:29.393Z,3.43
2023-09-27T17:18:57.994Z,3.93
2023-09-27T17:21:25.121Z,3.50
2023-09-27T17:23:52.355Z,4.80
2023-09-27T17:26:19.907Z,4.73
2023-09-27T17:28:47.226Z,4.47
2023-09-27T17:31:14.478Z,4.57
2023-09-27T17:33:42.670Z,4.40
2023-09-27T17:36:09.721Z,4.43
2023-09-27T17:38:36.558Z,3.73
2023-09-27T17:41:03.826Z,4.13
2023-09-27T17:43:30.828Z,4.23
2023-09-27T17:45:57.807Z,4.67
2023-09-27T17:48:24.816Z,4.10
2023-09-27T17:50:51.797Z,4.30
2023-09-27T17:53:18.759Z,4.20
2023-09-27T17:55:45.795Z,3.80
2023-09-27T17:58:12.708Z,4.10
2023-09-27T18:00:41.687Z,8.30
2023-09-27T18:03:08.563Z,8.77
2023-09-27T18:05:35.688Z,6.30
2023-09-27T18:08:02.735Z,7.47
2023-09-27T18:10:31.033Z,6.70
2023-09-27T18:12:57.940Z,6.67
2023-09-27T18:15:28.321Z,6.53
2023-09-27T18:17:55.956Z,4.80
2023-09-27T18:20:23.648Z,3.57
2023-09-27T18:22:50.919Z,3.60
2023-09-27T18:25:18.039Z,3.50
2023-09-27T18:27:45.032Z,3.83
2023-09-27T18:30:12.513Z,3.80
2023-09-27T18:32:39.523Z,3.70
2023-09-27T18:35:06.858Z,4.13
2023-09-27T18:37:34.473Z,3.60
2023-09-27T18:40:01.399Z,3.67
2023-09-27T18:42:28.301Z,3.63
2023-09-27T18:44:55.160Z,3.40
2023-09-27T18:47:22.280Z,3.20
2023-09-27T18:49:49.313Z,4.53
2023-09-27T18:52:16.169Z,4.20
2023-09-27T18:54:43.271Z,4.90
2023-09-27T18:57:10.095Z,4.70
2023-09-27T18:59:37.197Z,3.50
2023-09-27T19:02:04.204Z,4.20
2023-09-27T19:04:31.173Z,5.57
2023-09-27T19:06:58.310Z,4.20
2023-09-27T19:09:25.162Z,4.33
2023-09-27T19:11:54.476Z,4.20
2023-09-27T19:14:21.376Z,4.40
2023-09-27T19:16:48.373Z,4.33
2023-09-27T19:19:15.694Z,3.80
2023-09-27T19:21:43.612Z,4.20
2023-09-27T19:24:11.017Z,4.30
2023-09-27T19:26:39.149Z,4.23
2023-09-27T19:29:06.084Z,3.57
2023-09-27T19:31:33.237Z,3.90
2023-09-27T19:34:01.271Z,3.80
2023-09-27T19:36:28.203Z,4.13
2023-09-27T19:38:55.194Z,4.33
2023-09-27T19:41:29.196Z,4.67
2023-09-27T19:43:56.279Z,4.37
2023-09-27T19:46:24.605Z,4.40
2023-09-27T19:48:51.856Z,4.40
2023-09-27T19:51:23.649Z,4.80
2023-09-27T19:53:51.682Z,4.90
2023-09-27T19:56:18.732Z,5.43
2023-09-27T19:58:45.953Z,4.97
2023-09-27T20:01:25.620Z,4.40
2023-09-27T20:03:52.629Z,4.63
2023-09-27T20:06:19.722Z,4.37
2023-09-27T20:08:46.548Z,4.83
2023-09-27T20:11:13.302Z,4.40
2023-09-27T20:13:41.031Z,4.97
2023-09-27T20:16:08.539Z,5.00
2023-09-27T20:18:35.459Z,4.70
2023-09-27T20:21:02.515Z,5.43
2023-09-27T20:23:29.375Z,5.23
2023-09-27T20:25:56.249Z,4.67
2023-09-27T20:28:23.357Z,4.97
2023-09-27T20:30:50.213Z,5.60
2023-09-27T20:33:18.348Z,5.07
2023-09-27T20:35:45.180Z,5.80
2023-09-27T20:38:12.037Z,4.97
2023-09-27T20:40:38.990Z,5.03
2023-09-27T20:43:05.964Z,5.23
2023-09-27T20:45:33.012Z,5.43
2023-09-27T20:48:00.353Z,4.97
2023-09-27T20:50:27.191Z,4.57
2023-09-27T20:52:54.288Z,4.83
2023-09-27T20:55:21.230Z,4.47
2023-09-27T20:57:51.117Z,4.03
2023-09-27T21:00:20.786Z,4.20
2023-09-27T21:02:48.218Z,4.13
2023-09-27T21:05:16.137Z,3.83
2023-09-27T21:07:43.280Z,3.63
2023-09-27T21:10:10.811Z,4.80
2023-09-27T21:12:37.879Z,4.57
2023-09-27T21:15:05.261Z,4.47
2023-09-27T21:17:32.209Z,4.30
2023-09-27T21:19:59.092Z,4.50
2023-09-27T21:22:26.373Z,4.07
2023-09-27T21:24:53.240Z,4.93
2023-09-27T21:27:20.287Z,4.77
2023-09-27T21:29:47.081Z,4.73
2023-09-27T21:32:14.429Z,4.80
2023-09-27T21:34:41.897Z,5.17
2023-09-27T21:37:08.788Z,5.17
2023-09-27T21:39:39.040Z,4.93
2023-09-27T21:42:06.269Z,4.63
2023-09-27T21:44:33.068Z,5.70
2023-09-27T21:46:59.920Z,5.20
2023-09-27T21:49:27.059Z,4.93
2023-09-27T21:51:54.070Z,4.87
2023-09-27T21:54:20.913Z,4.17
2023-09-27T21:56:47.716Z,4.63
2023-09-27T21:59:14.762Z,4.57
2023-09-27T22:01:41.659Z,4.43
2023-09-27T22:04:08.484Z,5.00
2023-09-27T22:06:35.375Z,4.33
2023-09-27T22:09:04.598Z,4.73
2023-09-27T22:11:32.209Z,4.90
2023-09-27T22:14:06.203Z,4.57
2023-09-27T22:16:34.139Z,4.93
2023-09-27T22:19:12.001Z,5.37
2023-09-27T22:21:42.810Z,4.97
2023-09-27T22:24:13.221Z,4.73
2023-09-27T22:26:52.469Z,4.77
2023-09-27T22:29:19.825Z,4.90
2023-09-27T22:31:48.531Z,4.63
2023-09-27T22:34:24.896Z,4.97
2023-09-27T22:36:53.201Z,4.80
2023-09-27T22:39:20.690Z,4.63
2023-09-27T22:41:49.764Z,4.87
2023-09-27T22:44:20.611Z,5.20
2023-09-27T22:46:49.630Z,4.60
2023-09-27T22:49:17.992Z,4.40
2023-09-27T22:51:47.129Z,4.90
2023-09-27T22:54:17.664Z,4.47
2023-09-27T22:56:45.866Z,4.70
2023-09-27T22:59:13.398Z,4.50
2023-09-27T23:01:43.570Z,5.00
2023-09-27T23:04:15.726Z,4.87
2023-09-27T23:06:48.063Z,4.77
2023-09-27T23:09:22.146Z,4.60
2023-09-27T23:11:50.728Z,4.50
2023-09-27T23:14:24.443Z,4.30
2023-09-27T23:17:11.598Z,4.80
2023-09-27T23:19:44.785Z,5.20
2023-09-27T23:22:11.752Z,4.27
2023-09-27T23:24:38.945Z,4.07
2023-09-27T23:27:06.265Z,4.60
2023-09-27T23:29:33.075Z,4.00
2023-09-27T23:32:11.286Z,5.07
2023-09-27T23:34:38.585Z,4.37
2023-09-27T23:37:15.769Z,4.70
2023-09-27T23:39:45.220Z,5.30
2023-09-27T23:42:23.456Z,5.33
2023-09-27T23:45:09.303Z,5.17
2023-09-27T23:47:51.205Z,5.27
2023-09-27T23:50:18.918Z,4.90
2023-09-27T23:52:47.742Z,4.70
2023-09-27T23:55:16.868Z,4.17
2023-09-27T23:57:48.042Z,4.57
